Hovedside
METAR-TAF:

METAR-TAF

Lufthavner :

Vardø lufthavn. Svartnes

Vardø, Norge

breddegrad: 70-21N, lengdegrad: 031-03E, høyde over havet: 12 m

Gjeldene værobservasjon

Denne rapporten ble laget for 6 timer og 39 minutter siden, klokken 19:50 UTC
Vind 13 kt fra Sør-sørvest
Temperatur -1°C
Luftfuktighet 80%
Trykk 1001 hPa
Sikt 10 km eller mer
Spredte skyer i en høyde av 1700 ft

METAR: ENSS 201950Z 20013KT 9999 SCT017 M01/M04 Q1001 RMK WIND 500FT 21024KT

Tid: 03:29 (02:29 UTC)


TAF: fraværende

Værobservasjoner og værvarsel for over 4000 flyplasser (METAR- og TAF-rapporter).

Tilgjengelige stasjoner er representert av de røde og gule prikkene på kartet.

Hold musepekeren over prikken for å se navnet på stasjonen.

Klikk så for å se værobservasjoner og -varsler.

For å forandre kartet kan du klikke på den grønne knappen med svart kryss for å zoome inn, på den grønne knappen med strek for å zoome ut, eller på de grønne pilene for å se tilstøtende kart.


METAR-TAF: